Time;durP1;ratioP1;P1;durP2;ratioP2;P2;SDS_P1;SDS_P2;PMS_P1;PMS_P2;Temp;Humidity;BMP_temperature;BMP_pressure;BME280_temperature;BME280_humidity;BME280_pressure;Samples;Min_cycle;Max_cycle;Signal;HPM_P1;HPM_P2
2023/01/11 00:05:42;;;;;;;2.10;1.20;;;8.40;99.90;;;;;;2613337;54;20143;-71
2023/01/11 00:11:29;;;;;;;2.00;1.10;;;8.50;99.90;;;;;;2612978;39;20778;-72
2023/01/11 00:17:19;;;;;;;1.70;0.93;;;8.60;99.90;;;;;;2613994;54;20664;-71
2023/01/11 00:23:08;;;;;;;1.73;1.00;;;8.70;99.90;;;;;;2614811;54;20945;-70
2023/01/11 00:28:55;;;;;;;2.03;1.20;;;8.50;99.90;;;;;;2615604;54;20392;-71
2023/01/11 00:34:43;;;;;;;3.30;1.20;;;8.60;99.90;;;;;;2613181;54;20154;-70
2023/01/11 00:50:39;;;;;;;2.27;1.00;;;8.60;99.90;;;;;;2613661;54;20408;-72
2023/01/11 00:56:26;;;;;;;1.60;0.70;;;8.90;99.90;;;;;;2613577;54;20436;-70
2023/01/11 01:02:14;;;;;;;3.47;1.10;;;8.90;99.90;;;;;;2612109;54;20178;-70
2023/01/11 01:08:02;;;;;;;1.80;0.80;;;9.10;99.90;;;;;;2614538;54;20134;-71
2023/01/11 01:19:55;;;;;;;1.60;0.80;;;9.30;99.90;;;;;;2613277;39;20546;-69
2023/01/11 01:25:43;;;;;;;2.00;1.00;;;9.30;99.90;;;;;;2614050;39;20239;-71
2023/01/11 01:31:31;;;;;;;1.70;0.70;;;9.50;99.90;;;;;;2611505;54;20203;-70
2023/01/11 01:37:18;;;;;;;1.90;1.00;;;9.60;99.90;;;;;;2614722;54;20158;-72
2023/01/11 01:56:33;;;;;;;1.80;1.13;;;9.70;99.90;;;;;;2611391;54;20416;-73
2023/01/11 02:02:23;;;;;;;1.70;0.80;;;9.70;99.90;;;;;;2613530;54;21018;-70
2023/01/11 02:14:26;;;;;;;2.57;0.87;;;9.20;99.90;;;;;;2612363;54;20496;-71
2023/01/11 02:53:15;;;;;;;2.70;0.93;;;8.80;99.90;;;;;;2615083;54;20394;-72
2023/01/11 02:59:06;;;;;;;1.80;1.00;;;8.90;99.90;;;;;;2614313;39;20879;-69
2023/01/11 03:04:54;;;;;;;1.90;0.90;;;8.90;99.90;;;;;;2613605;54;20395;-70
2023/01/11 03:17:41;;;;;;;1.50;0.60;;;8.90;99.90;;;;;;2614495;54;20418;-69
2023/01/11 03:23:44;;;;;;;1.60;0.80;;;8.80;99.90;;;;;;2614754;54;20566;-69
2023/01/11 03:29:35;;;;;;;1.80;0.87;;;8.80;99.90;;;;;;2614475;54;20402;-70
2023/01/11 03:45:05;;;;;;;1.80;0.90;;;8.90;99.90;;;;;;2615379;54;20387;-71
2023/01/11 03:50:54;;;;;;;2.50;0.90;;;8.90;99.90;;;;;;2616178;31;21016;-70
2023/01/11 03:56:47;;;;;;;2.30;1.30;;;8.90;99.90;;;;;;2615734;39;20824;-71
2023/01/11 04:02:40;;;;;;;4.00;1.23;;;9.00;99.90;;;;;;2614971;54;20504;-70
2023/01/11 04:08:29;;;;;;;2.20;1.10;;;9.10;99.90;;;;;;2615044;54;20959;-71
2023/01/11 04:14:17;;;;;;;2.23;1.03;;;9.20;99.90;;;;;;2613686;54;20394;-70
2023/01/11 04:20:06;;;;;;;1.80;0.80;;;9.20;99.90;;;;;;2611592;54;20158;-69
2023/01/11 04:25:53;;;;;;;1.60;0.63;;;9.40;99.90;;;;;;2613992;54;20399;-69
2023/01/11 04:31:40;;;;;;;1.77;0.70;;;9.40;99.90;;;;;;2611974;54;20165;-70
2023/01/11 04:37:28;;;;;;;1.80;0.67;;;9.40;99.90;;;;;;2613997;54;20789;-68
2023/01/11 04:40:07;;;;;;;2.17;1.07;;;9.40;99.90;;;;;;2612549;54;20419;-70
2023/01/11 04:42:33;;;;;;;2.73;1.07;;;9.40;99.90;;;;;;2613273;47;20266;-70
2023/01/11 04:48:23;;;;;;;3.17;1.03;;;9.50;99.90;;;;;;2612849;54;20158;-70
2023/01/11 04:54:11;;;;;;;1.73;1.00;;;9.50;99.90;;;;;;2613986;54;20451;-69
2023/01/11 04:59:59;;;;;;;2.30;1.30;;;9.50;99.90;;;;;;2612413;54;20134;-71
2023/01/11 05:05:57;;;;;;;2.30;1.07;;;9.60;99.90;;;;;;2614156;54;20151;-72
2023/01/11 05:11:45;;;;;;;2.00;0.90;;;9.60;99.90;;;;;;2614247;54;20439;-69
2023/01/11 05:17:33;;;;;;;1.60;0.80;;;9.70;99.90;;;;;;2612412;54;20411;-70
2023/01/11 05:23:21;;;;;;;3.73;1.87;;;9.80;99.90;;;;;;2614066;54;20154;-70
2023/01/11 05:29:12;;;;;;;1.70;0.80;;;9.80;99.90;;;;;;2614077;54;20198;-70
2023/01/11 05:34:59;;;;;;;3.23;0.90;;;9.80;99.90;;;;;;2611259;54;20415;-70
2023/01/11 05:50:54;;;;;;;1.90;1.10;;;10.00;99.90;;;;;;2611842;39;20712;-70
2023/01/11 05:56:42;;;;;;;1.73;0.70;;;10.00;99.90;;;;;;2614376;54;20408;-70
2023/01/11 06:02:30;;;;;;;4.37;0.87;;;10.10;99.90;;;;;;2614301;54;20419;-71
2023/01/11 06:08:18;;;;;;;2.33;1.00;;;10.10;99.90;;;;;;2614514;54;20162;-71
2023/01/11 06:14:05;;;;;;;2.17;0.90;;;10.10;99.90;;;;;;2613888;54;20937;-70
2023/01/11 06:19:53;;;;;;;2.33;1.10;;;10.10;99.90;;;;;;2612406;39;20563;-73
2023/01/11 06:25:41;;;;;;;2.10;0.97;;;10.10;99.90;;;;;;2613466;54;20134;-71
2023/01/11 06:31:28;;;;;;;3.00;1.07;;;10.20;99.90;;;;;;2612731;46;20165;-70
2023/01/11 06:33:54;;;;;;;2.67;1.70;;;10.20;99.90;;;;;;2613235;47;21067;-69
2023/01/11 06:36:20;;;;;;;2.93;1.50;;;10.20;99.90;;;;;;2612937;54;20163;-70
2023/01/11 06:45:30;;;;;;;3.67;1.63;;;10.30;99.90;;;;;;2612647;54;20474;-69
2023/01/11 06:51:17;;;;;;;2.20;1.10;;;10.30;99.90;;;;;;2613788;54;21201;-70
2023/01/11 06:57:05;;;;;;;4.30;1.90;;;10.30;99.90;;;;;;2615245;46;20146;-70
2023/01/11 07:03:00;;;;;;;3.10;1.97;;;10.30;99.90;;;;;;2614625;54;20149;-72
2023/01/11 07:08:47;;;;;;;3.30;1.70;;;10.30;99.90;;;;;;2613177;54;21013;-70
2023/01/11 07:14:35;;;;;;;2.97;2.03;;;10.40;99.90;;;;;;2612035;54;20150;-71
2023/01/11 07:17:01;;;;;;;2.70;1.90;;;10.40;99.90;;;;;;2610229;54;20946;-69
2023/01/11 07:19:26;;;;;;;2.90;2.20;;;10.40;99.90;;;;;;2613789;47;20246;-69
2023/01/11 07:25:14;;;;;;;2.80;1.90;;;10.50;99.90;;;;;;2612544;54;20647;-70
2023/01/11 07:31:02;;;;;;;3.50;2.97;;;10.50;99.90;;;;;;2613695;54;20170;-72
2023/01/11 07:36:50;;;;;;;4.87;2.73;;;10.60;99.90;;;;;;2608806;54;20131;-69
2023/01/11 07:46:00;;;;;;;4.87;2.83;;;10.60;99.90;;;;;;2611349;54;20407;-70
2023/01/11 07:51:47;;;;;;;4.00;3.10;;;10.60;99.90;;;;;;2611210;39;20512;-71
2023/01/11 07:57:35;;;;;;;2.97;2.40;;;10.60;99.90;;;;;;2611622;39;20571;-70
2023/01/11 08:03:26;;;;;;;3.87;2.90;;;10.70;99.90;;;;;;2612080;54;20652;-69
2023/01/11 08:09:14;;;;;;;6.50;4.20;;;10.70;99.90;;;;;;2612263;54;20431;-68
2023/01/11 08:15:02;;;;;;;7.00;4.23;;;10.70;99.90;;;;;;2613134;54;20732;-70
2023/01/11 08:20:51;;;;;;;6.07;3.60;;;10.80;99.90;;;;;;2612528;54;20139;-71
2023/01/11 08:26:39;;;;;;;5.80;3.93;;;10.70;99.90;;;;;;2614057;54;20414;-69
2023/01/11 08:32:28;;;;;;;5.97;4.70;;;10.90;99.90;;;;;;2613387;54;20134;-71
2023/01/11 08:38:15;;;;;;;8.07;6.23;;;10.90;99.90;;;;;;2614246;54;20563;-69
2023/01/11 08:41:24;;;;;;;8.37;4.70;;;10.90;99.90;;;;;;2613273;54;20412;-70
2023/01/11 08:43:50;;;;;;;9.30;4.87;;;10.90;99.90;;;;;;2613527;39;20551;-70
2023/01/11 08:46:54;;;;;;;7.33;4.87;;;10.90;99.90;;;;;;2613800;54;20436;-69
2023/01/11 08:49:19;;;;;;;6.60;4.73;;;10.90;99.90;;;;;;2612964;54;20454;-69
2023/01/11 08:55:08;;;;;;;8.80;5.07;;;10.90;99.90;;;;;;2613135;46;20145;-69
2023/01/11 09:01:01;;;;;;;8.17;5.67;;;10.90;99.90;;;;;;2613984;54;21059;-71
2023/01/11 09:06:50;;;;;;;11.93;5.20;;;10.80;99.90;;;;;;2612743;54;20944;-69
2023/01/11 09:12:37;;;;;;;18.80;5.10;;;10.60;99.90;;;;;;2613097;54;20499;-70
2023/01/11 09:18:25;;;;;;;8.60;5.03;;;10.50;99.90;;;;;;2613960;54;20169;-68
2023/01/11 09:24:13;;;;;;;17.93;6.73;;;10.40;99.90;;;;;;2613490;54;20445;-68
2023/01/11 09:30:01;;;;;;;13.87;4.83;;;10.30;99.90;;;;;;2613865;54;20399;-69
2023/01/11 09:35:51;;;;;;;17.53;5.00;;;10.30;99.90;;;;;;2610889;46;20422;-71
2023/01/11 09:49:40;;;;;;;15.83;6.70;;;10.30;99.90;;;;;;2611108;47;20403;-68
2023/01/11 09:52:27;;;;;;;21.53;7.77;;;10.20;99.90;;;;;;2611673;54;20408;-69
2023/01/11 09:58:36;;;;;;;12.07;5.40;;;10.30;99.90;;;;;;2612796;54;20403;-69
2023/01/11 10:41:32;;;;;;;10.60;4.33;;;10.50;99.90;;;;;;2613692;54;20379;-68
2023/01/11 10:47:26;;;;;;;21.10;5.70;;;10.50;99.90;;;;;;2612503;54;21061;-69
2023/01/11 10:59:42;;;;;;;15.77;5.67;;;10.50;99.90;;;;;;2613664;54;20383;-69
2023/01/11 11:05:47;;;;;;;14.37;5.60;;;10.60;99.90;;;;;;2613486;54;20447;-71
2023/01/11 11:11:41;;;;;;;11.23;4.30;;;10.60;99.90;;;;;;2614995;39;20856;-69
2023/01/11 11:17:35;;;;;;;16.17;4.20;;;10.40;99.90;;;;;;2614105;54;20414;-69
2023/01/11 11:23:26;;;;;;;14.63;3.30;;;10.40;99.90;;;;;;2615256;54;20417;-69
2023/01/11 11:29:21;;;;;;;10.10;4.03;;;10.40;99.90;;;;;;2614044;54;20484;-69
2023/01/11 11:52:40;;;;;;;10.40;4.00;;;10.60;99.90;;;;;;2613531;39;20839;-69
2023/01/11 11:58:30;;;;;;;21.93;5.33;;;10.50;99.90;;;;;;2613209;46;20520;-69
2023/01/11 12:04:21;;;;;;;13.20;4.27;;;11.10;99.90;;;;;;2609829;54;20419;-70
2023/01/11 12:10:14;;;;;;;11.90;4.90;;;10.70;99.90;;;;;;2612521;39;20807;-68
2023/01/11 12:16:04;;;;;;;12.50;5.00;;;12.40;99.90;;;;;;2610994;54;20399;-70
2023/01/11 12:21:52;;;;;;;10.03;5.70;;;14.20;99.90;;;;;;2611209;54;21008;-70
2023/01/11 12:28:01;;;;;;;8.97;5.97;;;11.20;99.90;;;;;;2614067;54;20592;-67
2023/01/11 12:34:02;;;;;;;12.70;6.40;;;12.10;99.90;;;;;;2614547;54;20466;-69
2023/01/11 12:39:52;;;;;;;9.07;6.97;;;11.10;99.90;;;;;;2613842;54;20482;-68
2023/01/11 13:06:15;;;;;;;7.37;6.63;;;15.30;68.30;;;;;;2614481;54;20383;-69
2023/01/11 13:25:30;;;;;;;7.57;6.03;;;16.10;58.40;;;;;;2614082;54;20394;-71
2023/01/11 13:27:59;;;;;;;7.80;6.07;;;15.60;61.60;;;;;;2612651;47;20503;-70
2023/01/11 13:30:26;;;;;;;10.93;6.97;;;14.60;58.00;;;;;;2613665;54;20420;-70
2023/01/11 13:36:20;;;;;;;11.43;7.57;;;15.20;58.40;;;;;;2614161;39;20761;-68
2023/01/11 13:45:58;;;;;;;9.70;6.00;;;12.30;93.00;;;;;;2614171;54;20451;-69
2023/01/11 13:58:27;;;;;;;15.97;6.80;;;10.90;99.90;;;;;;2612016;39;21001;-67
2023/01/11 14:04:22;;;;;;;9.00;5.77;;;11.40;99.90;;;;;;2612192;54;20414;-68
2023/01/11 14:23:50;;;;;;;9.57;6.30;;;13.30;91.30;;;;;;2611952;54;20511;-70
2023/01/11 14:40:37;;;;;;;9.23;6.33;;;11.00;99.90;;;;;;2612615;54;20463;-70
2023/01/11 14:56:34;;;;;;;12.97;5.77;;;11.00;99.90;;;;;;2613032;54;21103;-69
2023/01/11 15:02:25;;;;;;;7.53;6.70;;;10.80;99.90;;;;;;2613916;54;20417;-68
2023/01/11 15:08:12;;;;;;;7.87;6.20;;;10.70;99.90;;;;;;2613304;54;20913;-68
2023/01/11 15:20:25;;;;;;;11.97;5.90;;;10.60;99.90;;;;;;2614380;54;20439;-69
2023/01/11 15:26:16;;;;;;;9.30;7.00;;;10.40;99.90;;;;;;2614089;54;20400;-69
2023/01/11 15:44:58;;;;;;;18.70;7.03;;;9.90;99.90;;;;;;2614285;54;20394;-68
2023/01/11 15:50:48;;;;;;;11.40;6.17;;;9.90;99.90;;;;;;2614431;54;20415;-68
2023/01/11 16:23:03;;;;;;;18.73;6.50;;;9.30;99.90;;;;;;2612025;54;20383;-68
2023/01/11 16:35:35;;;;;;;16.77;6.30;;;9.00;99.90;;;;;;2612715;54;20394;-69
2023/01/11 16:41:26;;;;;;;10.87;5.53;;;9.00;99.90;;;;;;2612498;54;20172;-69
2023/01/11 16:50:35;;;;;;;17.27;10.13;;;8.90;99.90;;;;;;2611948;54;20474;-67
2023/01/11 16:56:23;;;;;;;14.80;5.60;;;8.70;99.90;;;;;;2608823;54;20398;-69
2023/01/11 17:25:21;;;;;;;6.40;5.30;;;9.50;99.90;;;;;;2609391;46;20942;-69
2023/01/11 17:31:15;;;;;;;8.07;6.40;;;9.40;99.90;;;;;;2613118;54;20375;-70
2023/01/11 17:59:25;;;;;;;8.67;4.23;;;9.10;99.90;;;;;;2613687;54;20396;-69
2023/01/11 18:05:20;;;;;;;11.57;4.17;;;9.20;99.90;;;;;;2613047;54;20438;-69
2023/01/11 18:11:08;;;;;;;7.20;3.77;;;9.40;99.90;;;;;;2613183;54;20427;-69
2023/01/11 18:16:59;;;;;;;17.20;6.00;;;9.40;99.90;;;;;;2613341;54;20138;-71
2023/01/11 18:29:37;;;;;;;8.77;4.00;;;9.40;99.90;;;;;;2611888;54;20395;-68
2023/01/11 18:35:24;;;;;;;6.23;3.83;;;9.40;99.90;;;;;;2612867;54;20435;-69
2023/01/11 18:47:29;;;;;;;8.40;4.60;;;9.00;99.90;;;;;;2612753;39;20927;-71
2023/01/11 18:53:16;;;;;;;9.97;3.87;;;9.00;99.90;;;;;;2613732;46;20523;-68
2023/01/11 18:59:03;;;;;;;8.70;4.60;;;9.10;99.90;;;;;;2612962;54;20375;-70
2023/01/11 19:04:53;;;;;;;12.37;4.17;;;9.10;99.90;;;;;;2612550;54;20219;-68
2023/01/11 19:10:40;;;;;;;9.53;3.70;;;8.90;99.90;;;;;;2614078;54;20371;-70
2023/01/11 19:16:28;;;;;;;16.70;6.90;;;8.90;99.90;;;;;;2613393;54;20158;-68
2023/01/11 19:22:16;;;;;;;9.50;4.37;;;8.90;99.90;;;;;;2613980;54;20198;-71
2023/01/11 19:28:04;;;;;;;4.97;4.13;;;8.70;99.90;;;;;;2612026;54;20139;-69
2023/01/11 19:33:52;;;;;;;10.13;5.10;;;8.70;99.90;;;;;;2612750;54;20369;-71
2023/01/11 19:39:41;;;;;;;8.47;5.20;;;9.00;99.90;;;;;;2614655;54;20162;-69
2023/01/11 19:45:28;;;;;;;12.30;5.70;;;8.80;99.90;;;;;;2612754;31;20880;-70
2023/01/11 19:47:57;;;;;;;8.67;4.20;;;8.80;99.90;;;;;;2611445;47;20424;-69
2023/01/11 19:50:23;;;;;;;8.87;4.20;;;8.70;99.90;;;;;;2615007;54;20178;-69
2023/01/11 19:56:10;;;;;;;14.10;5.00;;;8.80;99.90;;;;;;2613500;54;20162;-70
2023/01/11 19:59:14;;;;;;;9.63;4.73;;;8.80;99.90;;;;;;2615204;54;20443;-70
2023/01/11 20:01:41;;;;;;;8.70;4.90;;;8.80;99.90;;;;;;2613859;54;20250;-68
2023/01/11 20:07:28;;;;;;;7.43;3.97;;;8.90;99.90;;;;;;2613532;54;21051;-69
2023/01/11 20:13:18;;;;;;;9.67;4.00;;;8.80;99.90;;;;;;2614609;54;20918;-68
2023/01/11 20:19:05;;;;;;;5.13;3.70;;;8.90;99.90;;;;;;2615019;39;20781;-68
2023/01/11 20:24:54;;;;;;;8.17;4.20;;;8.90;99.90;;;;;;2614437;54;21111;-69
2023/01/11 20:30:43;;;;;;;9.73;4.93;;;9.00;99.90;;;;;;2610752;54;20419;-70
2023/01/11 20:36:30;;;;;;;10.70;5.33;;;9.20;99.90;;;;;;2611515;54;20889;-68
2023/01/11 20:42:18;;;;;;;7.17;5.33;;;9.20;99.90;;;;;;2613994;54;20651;-71
2023/01/11 20:54:50;;;;;;;4.80;3.90;;;9.40;99.90;;;;;;2614213;46;20491;-67
2023/01/11 21:00:38;;;;;;;7.60;4.43;;;9.40;99.90;;;;;;2613502;54;20130;-69
2023/01/11 21:06:27;;;;;;;5.67;3.93;;;9.40;99.90;;;;;;2614826;54;20146;-71
2023/01/11 21:12:16;;;;;;;11.90;5.00;;;9.40;99.90;;;;;;2611527;54;20415;-71
2023/01/11 21:18:05;;;;;;;15.70;6.73;;;9.50;99.90;;;;;;2611942;54;20396;-70
2023/01/11 21:23:54;;;;;;;9.07;4.70;;;9.40;99.90;;;;;;2609371;54;20386;-70
2023/01/11 21:29:42;;;;;;;6.83;3.10;;;9.00;99.90;;;;;;2612425;54;20417;-68
2023/01/11 21:35:32;;;;;;;15.70;5.27;;;8.90;99.90;;;;;;2614253;54;20162;-69
2023/01/11 21:41:53;;;;;;;14.67;4.67;;;8.80;99.90;;;;;;2613564;54;20459;-69
2023/01/11 21:47:29;;;;;;;10.27;3.60;;;8.70;99.90;;;;;;2614273;39;20721;-69
2023/01/11 21:53:17;;;;;;;24.30;3.87;;;8.70;99.90;;;;;;2613925;54;20229;-68
2023/01/11 21:59:05;;;;;;;7.33;2.90;;;8.80;99.90;;;;;;2613634;54;20162;-71
2023/01/11 22:04:56;;;;;;;8.10;3.40;;;8.90;99.90;;;;;;2614733;46;20165;-69
2023/01/11 22:17:00;;;;;;;8.83;2.57;;;8.80;99.90;;;;;;2614581;54;20826;-70
2023/01/11 22:22:48;;;;;;;8.40;2.77;;;8.90;99.90;;;;;;2614856;54;20649;-70
2023/01/11 22:34:41;;;;;;;8.60;2.10;;;9.30;99.90;;;;;;2615324;54;20383;-68
2023/01/11 22:40:28;;;;;;;11.17;4.67;;;9.40;99.90;;;;;;2615735;54;20281;-68
2023/01/11 22:46:22;;;;;;;7.63;2.10;;;9.40;99.90;;;;;;2614071;54;20135;-70
2023/01/11 22:52:10;;;;;;;7.20;2.90;;;9.40;99.90;;;;;;2615225;54;20395;-70
2023/01/11 22:57:57;;;;;;;8.73;2.63;;;9.30;99.90;;;;;;2615453;54;20700;-69
2023/01/11 23:03:46;;;;;;;7.73;2.23;;;8.90;99.90;;;;;;2615583;54;20134;-68
2023/01/11 23:09:33;;;;;;;21.73;3.27;;;8.70;99.90;;;;;;2614392;39;20774;-69
2023/01/11 23:15:21;;;;;;;7.17;2.60;;;8.60;99.90;;;;;;2615326;54;20165;-68
2023/01/11 23:21:09;;;;;;;12.03;2.60;;;8.50;99.90;;;;;;2614688;46;20150;-69
2023/01/11 23:26:57;;;;;;;9.37;2.70;;;8.40;99.90;;;;;;2614359;54;20150;-70
2023/01/11 23:32:44;;;;;;;8.63;2.40;;;8.40;99.90;;;;;;2614230;54;20679;-69
2023/01/11 23:38:32;;;;;;;6.43;2.47;;;8.40;99.90;;;;;;2615223;54;20668;-69
2023/01/11 23:44:21;;;;;;;14.00;4.00;;;8.30;99.90;;;;;;2614153;54;20133;-68
2023/01/11 23:49:32;;;;;;;5.90;2.23;;;8.40;99.90;;;;;;2615137;54;20439;-69
2023/01/11 23:52:16;;;;;;;13.43;2.87;;;8.40;99.90;;;;;;2613713;54;20455;-68
2023/01/11 23:54:44;;;;;;;11.90;2.50;;;8.40;99.90;;;;;;2614242;54;20948;-69
